sensor_id;sensor_type;location;lat;lon;timestamp;temperature;humidity
24207;DHT22;12351;52.284;9.160;2023-12-28T00:01:56;7.90;99.90
24207;DHT22;12351;52.284;9.160;2023-12-28T00:04:43;8.00;99.90
24207;DHT22;12351;52.284;9.160;2023-12-28T00:07:30;8.00;99.90
24207;DHT22;12351;52.284;9.160;2023-12-28T00:10:19;8.00;99.90
24207;DHT22;12351;52.284;9.160;2023-12-28T00:13:06;8.00;99.90
24207;DHT22;12351;52.284;9.160;2023-12-28T00:15:53;8.00;99.90
24207;DHT22;12351;52.284;9.160;2023-12-28T00:18:41;8.00;99.90
24207;DHT22;12351;52.284;9.160;2023-12-28T00:21:28;8.00;99.90
24207;DHT22;12351;52.284;9.160;2023-12-28T00:24:16;8.00;99.90
24207;DHT22;12351;52.284;9.160;2023-12-28T00:27:04;8.00;99.90
24207;DHT22;12351;52.284;9.160;2023-12-28T00:29:51;8.00;99.90
24207;DHT22;12351;52.284;9.160;2023-12-28T00:32:40;8.00;99.90
24207;DHT22;12351;52.284;9.160;2023-12-28T00:35:29;8.00;99.90
24207;DHT22;12351;52.284;9.160;2023-12-28T00:38:16;8.00;99.90
24207;DHT22;12351;52.284;9.160;2023-12-28T00:41:04;8.00;99.90
24207;DHT22;12351;52.284;9.160;2023-12-28T00:43:54;7.90;99.90
24207;DHT22;12351;52.284;9.160;2023-12-28T00:46:43;7.90;99.90
24207;DHT22;12351;52.284;9.160;2023-12-28T00:49:30;7.90;99.90
24207;DHT22;12351;52.284;9.160;2023-12-28T00:52:17;7.90;99.90
24207;DHT22;12351;52.284;9.160;2023-12-28T00:55:05;7.90;99.90
24207;DHT22;12351;52.284;9.160;2023-12-28T00:57:53;7.80;99.90
24207;DHT22;12351;52.284;9.160;2023-12-28T01:00:42;7.90;99.90
24207;DHT22;12351;52.284;9.160;2023-12-28T01:03:31;7.90;99.90
24207;DHT22;12351;52.284;9.160;2023-12-28T01:06:18;7.90;99.90
24207;DHT22;12351;52.284;9.160;2023-12-28T01:09:06;7.90;99.90
24207;DHT22;12351;52.284;9.160;2023-12-28T01:11:54;7.90;99.90
24207;DHT22;12351;52.284;9.160;2023-12-28T01:14:40;7.90;99.90
24207;DHT22;12351;52.284;9.160;2023-12-28T01:17:28;7.90;99.90
24207;DHT22;12351;52.284;9.160;2023-12-28T01:23:03;7.90;99.90
24207;DHT22;12351;52.284;9.160;2023-12-28T01:25:50;7.90;99.90
24207;DHT22;12351;52.284;9.160;2023-12-28T01:28:37;7.90;99.90
24207;DHT22;12351;52.284;9.160;2023-12-28T01:31:24;7.90;99.90
24207;DHT22;12351;52.284;9.160;2023-12-28T01:34:11;7.90;99.90
24207;DHT22;12351;52.284;9.160;2023-12-28T01:36:58;7.90;99.90
24207;DHT22;12351;52.284;9.160;2023-12-28T01:42:34;8.00;99.90
24207;DHT22;12351;52.284;9.160;2023-12-28T01:45:21;7.90;99.90
24207;DHT22;12351;52.284;9.160;2023-12-28T01:48:13;8.00;99.90
24207;DHT22;12351;52.284;9.160;2023-12-28T01:51:00;7.90;99.90
24207;DHT22;12351;52.284;9.160;2023-12-28T01:53:50;8.00;99.90
24207;DHT22;12351;52.284;9.160;2023-12-28T01:56:38;8.00;99.90
24207;DHT22;12351;52.284;9.160;2023-12-28T01:59:25;8.00;99.90
24207;DHT22;12351;52.284;9.160;2023-12-28T02:02:13;8.00;99.90
24207;DHT22;12351;52.284;9.160;2023-12-28T02:05:00;8.00;99.90
24207;DHT22;12351;52.284;9.160;2023-12-28T02:07:48;8.00;99.90
24207;DHT22;12351;52.284;9.160;2023-12-28T02:10:35;8.10;99.90
24207;DHT22;12351;52.284;9.160;2023-12-28T02:13:22;8.10;99.90
24207;DHT22;12351;52.284;9.160;2023-12-28T02:19:11;8.10;99.90
24207;DHT22;12351;52.284;9.160;2023-12-28T02:21:51;8.10;99.90
24207;DHT22;12351;52.284;9.160;2023-12-28T02:27:28;8.10;99.90
24207;DHT22;12351;52.284;9.160;2023-12-28T02:30:17;8.10;99.90
24207;DHT22;12351;52.284;9.160;2023-12-28T02:35:59;8.20;99.90
24207;DHT22;12351;52.284;9.160;2023-12-28T02:38:47;8.20;99.90
24207;DHT22;12351;52.284;9.160;2023-12-28T02:41:35;8.20;99.90
24207;DHT22;12351;52.284;9.160;2023-12-28T02:44:23;8.20;99.90
24207;DHT22;12351;52.284;9.160;2023-12-28T02:47:10;8.30;99.90
24207;DHT22;12351;52.284;9.160;2023-12-28T02:49:59;8.20;99.90
24207;DHT22;12351;52.284;9.160;2023-12-28T02:52:46;8.30;99.90
24207;DHT22;12351;52.284;9.160;2023-12-28T02:55:34;8.30;99.90
24207;DHT22;12351;52.284;9.160;2023-12-28T02:58:21;8.30;99.90
24207;DHT22;12351;52.284;9.160;2023-12-28T03:01:08;8.30;99.90
24207;DHT22;12351;52.284;9.160;2023-12-28T03:03:55;8.30;99.90
24207;DHT22;12351;52.284;9.160;2023-12-28T03:06:46;8.30;99.90
24207;DHT22;12351;52.284;9.160;2023-12-28T03:09:33;8.30;99.90
24207;DHT22;12351;52.284;9.160;2023-12-28T03:12:20;8.40;99.90
24207;DHT22;12351;52.284;9.160;2023-12-28T03:15:08;8.30;99.90
24207;DHT22;12351;52.284;9.160;2023-12-28T03:17:55;8.40;99.90
24207;DHT22;12351;52.284;9.160;2023-12-28T03:20:42;8.40;99.90
24207;DHT22;12351;52.284;9.160;2023-12-28T03:23:29;8.40;99.90
24207;DHT22;12351;52.284;9.160;2023-12-28T03:26:16;8.40;99.90
24207;DHT22;12351;52.284;9.160;2023-12-28T03:31:51;8.40;99.90
24207;DHT22;12351;52.284;9.160;2023-12-28T03:34:39;8.40;99.90
24207;DHT22;12351;52.284;9.160;2023-12-28T03:37:27;8.40;99.90
24207;DHT22;12351;52.284;9.160;2023-12-28T03:40:14;8.50;99.90
24207;DHT22;12351;52.284;9.160;2023-12-28T03:43:01;8.50;99.90
24207;DHT22;12351;52.284;9.160;2023-12-28T03:45:48;8.50;99.90
24207;DHT22;12351;52.284;9.160;2023-12-28T03:48:36;8.50;99.90
24207;DHT22;12351;52.284;9.160;2023-12-28T03:51:24;8.50;99.90
24207;DHT22;12351;52.284;9.160;2023-12-28T03:54:11;8.50;99.90
24207;DHT22;12351;52.284;9.160;2023-12-28T03:59:46;8.60;99.90
24207;DHT22;12351;52.284;9.160;2023-12-28T04:02:33;8.60;99.90
24207;DHT22;12351;52.284;9.160;2023-12-28T04:05:21;8.60;99.90
24207;DHT22;12351;52.284;9.160;2023-12-28T04:08:08;8.60;99.90
24207;DHT22;12351;52.284;9.160;2023-12-28T04:10:56;8.60;99.90
24207;DHT22;12351;52.284;9.160;2023-12-28T04:13:42;8.60;99.90
24207;DHT22;12351;52.284;9.160;2023-12-28T04:16:29;8.60;99.90
24207;DHT22;12351;52.284;9.160;2023-12-28T04:19:16;8.60;99.90
24207;DHT22;12351;52.284;9.160;2023-12-28T04:22:03;8.60;99.90
24207;DHT22;12351;52.284;9.160;2023-12-28T04:24:50;8.60;99.90
24207;DHT22;12351;52.284;9.160;2023-12-28T04:27:39;8.60;99.90
24207;DHT22;12351;52.284;9.160;2023-12-28T04:30:26;8.60;99.90
24207;DHT22;12351;52.284;9.160;2023-12-28T04:33:16;8.60;99.90
24207;DHT22;12351;52.284;9.160;2023-12-28T04:36:05;8.60;99.90
24207;DHT22;12351;52.284;9.160;2023-12-28T04:38:52;8.60;99.90
24207;DHT22;12351;52.284;9.160;2023-12-28T04:41:39;8.60;99.90
24207;DHT22;12351;52.284;9.160;2023-12-28T04:44:26;8.60;99.90
24207;DHT22;12351;52.284;9.160;2023-12-28T04:47:13;8.60;99.90
24207;DHT22;12351;52.284;9.160;2023-12-28T04:50:00;8.60;99.90
24207;DHT22;12351;52.284;9.160;2023-12-28T04:52:47;8.60;99.90
24207;DHT22;12351;52.284;9.160;2023-12-28T04:55:35;8.60;99.90
24207;DHT22;12351;52.284;9.160;2023-12-28T04:58:22;8.60;99.90
24207;DHT22;12351;52.284;9.160;2023-12-28T05:01:09;8.60;99.90
24207;DHT22;12351;52.284;9.160;2023-12-28T05:03:55;8.60;99.90
24207;DHT22;12351;52.284;9.160;2023-12-28T05:06:43;8.70;99.90
24207;DHT22;12351;52.284;9.160;2023-12-28T05:09:30;8.70;99.90
24207;DHT22;12351;52.284;9.160;2023-12-28T05:12:17;8.70;99.90
24207;DHT22;12351;52.284;9.160;2023-12-28T05:15:04;8.70;99.90
24207;DHT22;12351;52.284;9.160;2023-12-28T05:17:52;8.70;99.90
24207;DHT22;12351;52.284;9.160;2023-12-28T05:20:39;8.70;99.90
24207;DHT22;12351;52.284;9.160;2023-12-28T05:23:26;8.70;99.90
24207;DHT22;12351;52.284;9.160;2023-12-28T05:26:13;8.70;99.90
24207;DHT22;12351;52.284;9.160;2023-12-28T05:29:01;8.70;99.90
24207;DHT22;12351;52.284;9.160;2023-12-28T05:31:48;8.80;99.90
24207;DHT22;12351;52.284;9.160;2023-12-28T05:34:35;8.80;99.90
24207;DHT22;12351;52.284;9.160;2023-12-28T05:37:22;8.80;99.90
24207;DHT22;12351;52.284;9.160;2023-12-28T05:40:10;8.80;99.90
24207;DHT22;12351;52.284;9.160;2023-12-28T05:42:57;8.80;99.90
24207;DHT22;12351;52.284;9.160;2023-12-28T05:45:44;8.90;99.90
24207;DHT22;12351;52.284;9.160;2023-12-28T05:48:31;8.80;99.90
24207;DHT22;12351;52.284;9.160;2023-12-28T05:51:18;8.90;99.90
24207;DHT22;12351;52.284;9.160;2023-12-28T05:54:05;8.90;99.90
24207;DHT22;12351;52.284;9.160;2023-12-28T05:56:52;8.80;99.90
24207;DHT22;12351;52.284;9.160;2023-12-28T05:59:40;8.90;99.90
24207;DHT22;12351;52.284;9.160;2023-12-28T06:02:27;8.80;99.90
24207;DHT22;12351;52.284;9.160;2023-12-28T06:05:14;8.90;99.90
24207;DHT22;12351;52.284;9.160;2023-12-28T06:08:01;8.80;99.90
24207;DHT22;12351;52.284;9.160;2023-12-28T06:10:48;8.80;99.90
24207;DHT22;12351;52.284;9.160;2023-12-28T06:13:36;8.80;99.90
24207;DHT22;12351;52.284;9.160;2023-12-28T06:16:23;8.80;99.90
24207;DHT22;12351;52.284;9.160;2023-12-28T06:19:11;8.80;99.90
24207;DHT22;12351;52.284;9.160;2023-12-28T06:22:00;8.80;99.90
24207;DHT22;12351;52.284;9.160;2023-12-28T06:24:47;8.80;99.90
24207;DHT22;12351;52.284;9.160;2023-12-28T06:27:34;8.80;99.90
24207;DHT22;12351;52.284;9.160;2023-12-28T06:30:21;8.80;99.90
24207;DHT22;12351;52.284;9.160;2023-12-28T06:33:08;8.90;99.90
24207;DHT22;12351;52.284;9.160;2023-12-28T06:35:55;8.80;99.90
24207;DHT22;12351;52.284;9.160;2023-12-28T06:38:46;8.80;99.90
24207;DHT22;12351;52.284;9.160;2023-12-28T06:41:34;8.90;99.90
24207;DHT22;12351;52.284;9.160;2023-12-28T06:44:20;8.90;99.90
24207;DHT22;12351;52.284;9.160;2023-12-28T06:47:07;8.90;99.90
24207;DHT22;12351;52.284;9.160;2023-12-28T06:49:55;8.90;99.90
24207;DHT22;12351;52.284;9.160;2023-12-28T06:52:42;8.90;99.90
24207;DHT22;12351;52.284;9.160;2023-12-28T06:55:29;8.90;99.90
24207;DHT22;12351;52.284;9.160;2023-12-28T07:01:04;8.90;99.90
24207;DHT22;12351;52.284;9.160;2023-12-28T07:03:52;8.90;99.90
24207;DHT22;12351;52.284;9.160;2023-12-28T07:06:39;8.90;99.90
24207;DHT22;12351;52.284;9.160;2023-12-28T07:09:26;8.90;99.90
24207;DHT22;12351;52.284;9.160;2023-12-28T07:12:13;8.90;99.90
24207;DHT22;12351;52.284;9.160;2023-12-28T07:15:02;8.90;99.90
24207;DHT22;12351;52.284;9.160;2023-12-28T07:17:49;8.90;99.90
24207;DHT22;12351;52.284;9.160;2023-12-28T07:20:36;9.00;99.90
24207;DHT22;12351;52.284;9.160;2023-12-28T07:23:23;9.00;99.90
24207;DHT22;12351;52.284;9.160;2023-12-28T07:26:10;9.00;99.90
24207;DHT22;12351;52.284;9.160;2023-12-28T07:28:57;9.00;99.90
24207;DHT22;12351;52.284;9.160;2023-12-28T07:31:44;9.00;99.90
24207;DHT22;12351;52.284;9.160;2023-12-28T07:34:32;9.00;99.90
24207;DHT22;12351;52.284;9.160;2023-12-28T07:37:19;9.00;99.90
24207;DHT22;12351;52.284;9.160;2023-12-28T07:40:07;9.00;99.90
24207;DHT22;12351;52.284;9.160;2023-12-28T07:42:54;9.00;99.90
24207;DHT22;12351;52.284;9.160;2023-12-28T07:45:42;9.00;99.90
24207;DHT22;12351;52.284;9.160;2023-12-28T07:48:30;9.00;99.90
24207;DHT22;12351;52.284;9.160;2023-12-28T07:51:17;9.00;99.90
24207;DHT22;12351;52.284;9.160;2023-12-28T07:54:04;9.00;99.90
24207;DHT22;12351;52.284;9.160;2023-12-28T07:56:51;9.00;99.90
24207;DHT22;12351;52.284;9.160;2023-12-28T07:59:38;9.00;99.90
24207;DHT22;12351;52.284;9.160;2023-12-28T08:02:25;9.00;99.90
24207;DHT22;12351;52.284;9.160;2023-12-28T08:05:13;9.00;99.90
24207;DHT22;12351;52.284;9.160;2023-12-28T08:08:00;9.00;99.90
24207;DHT22;12351;52.284;9.160;2023-12-28T08:10:48;9.10;99.90
24207;DHT22;12351;52.284;9.160;2023-12-28T08:13:35;9.10;99.90
24207;DHT22;12351;52.284;9.160;2023-12-28T08:16:26;9.10;99.90
24207;DHT22;12351;52.284;9.160;2023-12-28T08:19:13;9.00;99.90
24207;DHT22;12351;52.284;9.160;2023-12-28T08:22:01;9.10;99.90
24207;DHT22;12351;52.284;9.160;2023-12-28T08:24:49;9.10;99.90
24207;DHT22;12351;52.284;9.160;2023-12-28T08:27:36;9.10;99.90
24207;DHT22;12351;52.284;9.160;2023-12-28T08:30:23;9.10;99.90
24207;DHT22;12351;52.284;9.160;2023-12-28T08:33:10;9.10;99.90
24207;DHT22;12351;52.284;9.160;2023-12-28T08:36:02;9.10;99.90
24207;DHT22;12351;52.284;9.160;2023-12-28T08:38:49;9.10;99.90
24207;DHT22;12351;52.284;9.160;2023-12-28T08:41:37;9.10;99.90
24207;DHT22;12351;52.284;9.160;2023-12-28T08:44:24;9.10;99.90
24207;DHT22;12351;52.284;9.160;2023-12-28T08:47:11;9.10;99.90
24207;DHT22;12351;52.284;9.160;2023-12-28T08:49:58;9.10;99.90
24207;DHT22;12351;52.284;9.160;2023-12-28T08:52:45;9.10;99.90
24207;DHT22;12351;52.284;9.160;2023-12-28T08:55:32;9.10;99.90
24207;DHT22;12351;52.284;9.160;2023-12-28T08:58:19;9.10;99.90
24207;DHT22;12351;52.284;9.160;2023-12-28T09:01:06;9.20;99.90
24207;DHT22;12351;52.284;9.160;2023-12-28T09:03:53;9.20;99.90
24207;DHT22;12351;52.284;9.160;2023-12-28T09:06:40;9.20;99.90
24207;DHT22;12351;52.284;9.160;2023-12-28T09:09:27;9.20;99.90
24207;DHT22;12351;52.284;9.160;2023-12-28T09:12:14;9.20;99.90
24207;DHT22;12351;52.284;9.160;2023-12-28T09:15:01;9.30;99.90
24207;DHT22;12351;52.284;9.160;2023-12-28T09:17:48;9.30;99.90
24207;DHT22;12351;52.284;9.160;2023-12-28T09:20:36;9.30;99.90
24207;DHT22;12351;52.284;9.160;2023-12-28T09:23:23;9.30;99.90
24207;DHT22;12351;52.284;9.160;2023-12-28T09:26:10;9.30;99.90
24207;DHT22;12351;52.284;9.160;2023-12-28T09:28:58;9.30;99.90
24207;DHT22;12351;52.284;9.160;2023-12-28T09:31:46;9.30;99.90
24207;DHT22;12351;52.284;9.160;2023-12-28T09:34:33;9.40;99.90
24207;DHT22;12351;52.284;9.160;2023-12-28T09:37:20;9.30;99.90
24207;DHT22;12351;52.284;9.160;2023-12-28T09:40:08;9.40;99.90
24207;DHT22;12351;52.284;9.160;2023-12-28T09:45:48;9.50;99.90
24207;DHT22;12351;52.284;9.160;2023-12-28T09:48:37;9.50;99.90
24207;DHT22;12351;52.284;9.160;2023-12-28T09:51:26;9.50;99.90
24207;DHT22;12351;52.284;9.160;2023-12-28T09:54:14;9.50;99.90
24207;DHT22;12351;52.284;9.160;2023-12-28T09:57:02;9.50;99.90
24207;DHT22;12351;52.284;9.160;2023-12-28T09:59:53;9.60;99.90
24207;DHT22;12351;52.284;9.160;2023-12-28T10:02:43;9.60;99.90
24207;DHT22;12351;52.284;9.160;2023-12-28T10:05:30;9.60;99.90
24207;DHT22;12351;52.284;9.160;2023-12-28T10:08:17;9.70;99.90
24207;DHT22;12351;52.284;9.160;2023-12-28T10:11:04;9.70;99.90
24207;DHT22;12351;52.284;9.160;2023-12-28T10:13:52;9.70;99.90
24207;DHT22;12351;52.284;9.160;2023-12-28T10:16:41;9.70;99.90
24207;DHT22;12351;52.284;9.160;2023-12-28T10:19:28;9.70;99.90
24207;DHT22;12351;52.284;9.160;2023-12-28T10:22:16;9.80;99.90
24207;DHT22;12351;52.284;9.160;2023-12-28T10:25:04;9.80;99.90
24207;DHT22;12351;52.284;9.160;2023-12-28T10:27:52;9.80;99.90
24207;DHT22;12351;52.284;9.160;2023-12-28T10:30:39;9.80;99.90
24207;DHT22;12351;52.284;9.160;2023-12-28T10:33:27;9.80;99.90
24207;DHT22;12351;52.284;9.160;2023-12-28T10:36:15;9.90;99.90
24207;DHT22;12351;52.284;9.160;2023-12-28T10:39:02;9.90;99.90
24207;DHT22;12351;52.284;9.160;2023-12-28T10:41:51;9.90;99.90
24207;DHT22;12351;52.284;9.160;2023-12-28T10:44:43;9.90;99.90
24207;DHT22;12351;52.284;9.160;2023-12-28T10:47:34;9.90;99.90
24207;DHT22;12351;52.284;9.160;2023-12-28T10:50:20;9.90;99.90
24207;DHT22;12351;52.284;9.160;2023-12-28T11:01:42;10.00;99.90
24207;DHT22;12351;52.284;9.160;2023-12-28T11:07:21;10.00;99.90
24207;DHT22;12351;52.284;9.160;2023-12-28T11:10:09;10.00;99.90
24207;DHT22;12351;52.284;9.160;2023-12-28T11:12:57;10.00;99.90
24207;DHT22;12351;52.284;9.160;2023-12-28T11:15:46;10.00;99.90
24207;DHT22;12351;52.284;9.160;2023-12-28T11:18:34;10.00;99.90
24207;DHT22;12351;52.284;9.160;2023-12-28T11:21:22;10.00;99.90
24207;DHT22;12351;52.284;9.160;2023-12-28T11:24:09;10.10;99.90
24207;DHT22;12351;52.284;9.160;2023-12-28T11:26:57;10.10;99.90
24207;DHT22;12351;52.284;9.160;2023-12-28T11:29:48;10.10;99.90
24207;DHT22;12351;52.284;9.160;2023-12-28T11:32:36;10.10;99.90
24207;DHT22;12351;52.284;9.160;2023-12-28T11:38:15;10.10;99.90
24207;DHT22;12351;52.284;9.160;2023-12-28T11:41:06;10.10;99.90
24207;DHT22;12351;52.284;9.160;2023-12-28T11:43:54;10.10;99.90
24207;DHT22;12351;52.284;9.160;2023-12-28T11:46:42;10.10;99.90
24207;DHT22;12351;52.284;9.160;2023-12-28T11:49:29;10.10;99.90
24207;DHT22;12351;52.284;9.160;2023-12-28T11:52:25;10.10;99.90
24207;DHT22;12351;52.284;9.160;2023-12-28T11:55:05;10.20;99.90
24207;DHT22;12351;52.284;9.160;2023-12-28T11:57:53;10.20;99.90
24207;DHT22;12351;52.284;9.160;2023-12-28T12:00:40;10.20;99.90
24207;DHT22;12351;52.284;9.160;2023-12-28T12:03:30;10.30;99.90
24207;DHT22;12351;52.284;9.160;2023-12-28T12:06:18;10.30;99.90
24207;DHT22;12351;52.284;9.160;2023-12-28T12:11:56;10.40;99.90
24207;DHT22;12351;52.284;9.160;2023-12-28T12:14:44;10.40;99.90
24207;DHT22;12351;52.284;9.160;2023-12-28T12:17:31;10.40;99.90
24207;DHT22;12351;52.284;9.160;2023-12-28T12:20:18;10.40;99.90
24207;DHT22;12351;52.284;9.160;2023-12-28T12:23:06;10.40;99.90
24207;DHT22;12351;52.284;9.160;2023-12-28T12:25:53;10.40;99.90
24207;DHT22;12351;52.284;9.160;2023-12-28T12:28:41;10.40;99.90
24207;DHT22;12351;52.284;9.160;2023-12-28T12:31:28;10.50;99.90
24207;DHT22;12351;52.284;9.160;2023-12-28T12:34:16;10.50;99.90
24207;DHT22;12351;52.284;9.160;2023-12-28T12:37:04;10.50;99.90
24207;DHT22;12351;52.284;9.160;2023-12-28T12:39:51;10.50;99.90
24207;DHT22;12351;52.284;9.160;2023-12-28T12:42:38;10.50;99.90
24207;DHT22;12351;52.284;9.160;2023-12-28T12:45:25;10.50;99.90
24207;DHT22;12351;52.284;9.160;2023-12-28T12:48:12;10.50;99.90
24207;DHT22;12351;52.284;9.160;2023-12-28T12:51:02;10.50;99.90
24207;DHT22;12351;52.284;9.160;2023-12-28T12:53:50;10.50;99.90
24207;DHT22;12351;52.284;9.160;2023-12-28T12:56:37;10.50;99.90
24207;DHT22;12351;52.284;9.160;2023-12-28T12:59:26;10.50;99.90
24207;DHT22;12351;52.284;9.160;2023-12-28T13:02:13;10.50;99.90
24207;DHT22;12351;52.284;9.160;2023-12-28T13:05:00;10.50;99.90
24207;DHT22;12351;52.284;9.160;2023-12-28T13:07:50;10.50;99.90
24207;DHT22;12351;52.284;9.160;2023-12-28T13:10:37;10.50;99.90
24207;DHT22;12351;52.284;9.160;2023-12-28T13:13:24;10.50;99.90
24207;DHT22;12351;52.284;9.160;2023-12-28T13:16:11;10.50;99.90
24207;DHT22;12351;52.284;9.160;2023-12-28T13:18:59;10.50;99.90
24207;DHT22;12351;52.284;9.160;2023-12-28T13:21:46;10.50;99.90
24207;DHT22;12351;52.284;9.160;2023-12-28T13:24:33;10.50;99.90
24207;DHT22;12351;52.284;9.160;2023-12-28T13:27:20;10.50;99.90
24207;DHT22;12351;52.284;9.160;2023-12-28T13:30:07;10.50;99.90
24207;DHT22;12351;52.284;9.160;2023-12-28T13:32:55;10.50;99.90
24207;DHT22;12351;52.284;9.160;2023-12-28T13:35:42;10.50;99.90
24207;DHT22;12351;52.284;9.160;2023-12-28T13:38:29;10.50;99.90
24207;DHT22;12351;52.284;9.160;2023-12-28T13:41:18;10.50;99.90
24207;DHT22;12351;52.284;9.160;2023-12-28T13:44:05;10.50;99.90
24207;DHT22;12351;52.284;9.160;2023-12-28T13:46:54;10.50;99.90
24207;DHT22;12351;52.284;9.160;2023-12-28T13:49:44;10.50;99.90
24207;DHT22;12351;52.284;9.160;2023-12-28T13:52:31;10.50;99.90
24207;DHT22;12351;52.284;9.160;2023-12-28T13:55:18;10.50;99.90
24207;DHT22;12351;52.284;9.160;2023-12-28T13:58:05;10.50;99.90
24207;DHT22;12351;52.284;9.160;2023-12-28T14:00:53;10.50;99.90
24207;DHT22;12351;52.284;9.160;2023-12-28T14:03:41;10.50;99.90
24207;DHT22;12351;52.284;9.160;2023-12-28T14:06:30;10.50;99.90
24207;DHT22;12351;52.284;9.160;2023-12-28T14:09:17;10.50;99.90
24207;DHT22;12351;52.284;9.160;2023-12-28T14:12:05;10.40;99.90
24207;DHT22;12351;52.284;9.160;2023-12-28T14:14:52;10.50;99.90
24207;DHT22;12351;52.284;9.160;2023-12-28T14:17:40;10.40;99.90
24207;DHT22;12351;52.284;9.160;2023-12-28T14:20:27;10.40;99.90
24207;DHT22;12351;52.284;9.160;2023-12-28T14:23:14;10.40;99.90
24207;DHT22;12351;52.284;9.160;2023-12-28T14:26:04;10.40;99.90
24207;DHT22;12351;52.284;9.160;2023-12-28T14:28:51;10.40;99.90
24207;DHT22;12351;52.284;9.160;2023-12-28T14:31:39;10.40;99.90
24207;DHT22;12351;52.284;9.160;2023-12-28T14:34:26;10.40;99.90
24207;DHT22;12351;52.284;9.160;2023-12-28T14:37:13;10.40;99.90
24207;DHT22;12351;52.284;9.160;2023-12-28T14:40:00;10.40;99.90
24207;DHT22;12351;52.284;9.160;2023-12-28T14:42:48;10.40;99.90
24207;DHT22;12351;52.284;9.160;2023-12-28T14:45:36;10.40;99.90
24207;DHT22;12351;52.284;9.160;2023-12-28T14:48:23;10.40;99.90
24207;DHT22;12351;52.284;9.160;2023-12-28T14:51:09;10.40;99.90
24207;DHT22;12351;52.284;9.160;2023-12-28T14:53:57;10.40;99.90
24207;DHT22;12351;52.284;9.160;2023-12-28T14:56:46;10.40;99.90
24207;DHT22;12351;52.284;9.160;2023-12-28T14:59:33;10.40;99.90
24207;DHT22;12351;52.284;9.160;2023-12-28T15:02:20;10.40;99.90
24207;DHT22;12351;52.284;9.160;2023-12-28T15:05:08;10.40;99.90
24207;DHT22;12351;52.284;9.160;2023-12-28T15:07:56;10.40;99.90
24207;DHT22;12351;52.284;9.160;2023-12-28T15:10:44;10.30;99.90
24207;DHT22;12351;52.284;9.160;2023-12-28T15:13:32;10.40;99.90
24207;DHT22;12351;52.284;9.160;2023-12-28T15:16:19;10.30;99.90
24207;DHT22;12351;52.284;9.160;2023-12-28T15:19:06;10.30;99.90
24207;DHT22;12351;52.284;9.160;2023-12-28T15:24:42;10.30;99.90
24207;DHT22;12351;52.284;9.160;2023-12-28T15:27:32;10.30;99.90
24207;DHT22;12351;52.284;9.160;2023-12-28T15:30:20;10.30;99.90
24207;DHT22;12351;52.284;9.160;2023-12-28T15:33:09;10.30;99.90
24207;DHT22;12351;52.284;9.160;2023-12-28T15:35:55;10.30;99.90
24207;DHT22;12351;52.284;9.160;2023-12-28T15:38:43;10.30;99.90
24207;DHT22;12351;52.284;9.160;2023-12-28T15:41:31;10.30;99.90
24207;DHT22;12351;52.284;9.160;2023-12-28T15:44:18;10.30;99.90
24207;DHT22;12351;52.284;9.160;2023-12-28T15:47:06;10.30;99.90
24207;DHT22;12351;52.284;9.160;2023-12-28T15:49:53;10.30;99.90
24207;DHT22;12351;52.284;9.160;2023-12-28T15:52:41;10.30;99.90
24207;DHT22;12351;52.284;9.160;2023-12-28T15:55:27;10.20;99.90
24207;DHT22;12351;52.284;9.160;2023-12-28T15:58:15;10.20;99.90
24207;DHT22;12351;52.284;9.160;2023-12-28T16:01:03;10.20;99.90
24207;DHT22;12351;52.284;9.160;2023-12-28T16:03:50;10.30;99.90
24207;DHT22;12351;52.284;9.160;2023-12-28T16:06:37;10.30;99.90
24207;DHT22;12351;52.284;9.160;2023-12-28T16:09:24;10.20;99.90
24207;DHT22;12351;52.284;9.160;2023-12-28T16:12:11;10.20;99.90
24207;DHT22;12351;52.284;9.160;2023-12-28T16:14:58;10.20;99.90
24207;DHT22;12351;52.284;9.160;2023-12-28T16:17:45;10.20;99.90
24207;DHT22;12351;52.284;9.160;2023-12-28T16:20:33;10.30;99.90
24207;DHT22;12351;52.284;9.160;2023-12-28T16:23:20;10.20;99.90
24207;DHT22;12351;52.284;9.160;2023-12-28T16:26:08;10.20;99.90
24207;DHT22;12351;52.284;9.160;2023-12-28T16:28:56;10.20;99.90
24207;DHT22;12351;52.284;9.160;2023-12-28T16:31:43;10.20;99.90
24207;DHT22;12351;52.284;9.160;2023-12-28T16:34:30;10.20;99.90
24207;DHT22;12351;52.284;9.160;2023-12-28T16:37:17;10.20;99.90
24207;DHT22;12351;52.284;9.160;2023-12-28T16:40:05;10.20;99.90
24207;DHT22;12351;52.284;9.160;2023-12-28T16:42:52;10.20;99.90
24207;DHT22;12351;52.284;9.160;2023-12-28T16:45:39;10.20;99.90
24207;DHT22;12351;52.284;9.160;2023-12-28T16:48:26;10.20;99.90
24207;DHT22;12351;52.284;9.160;2023-12-28T16:51:13;10.20;99.90
24207;DHT22;12351;52.284;9.160;2023-12-28T16:54:00;10.20;99.90
24207;DHT22;12351;52.284;9.160;2023-12-28T16:56:49;10.20;99.90
24207;DHT22;12351;52.284;9.160;2023-12-28T16:59:36;10.20;99.90
24207;DHT22;12351;52.284;9.160;2023-12-28T17:02:26;10.20;99.90
24207;DHT22;12351;52.284;9.160;2023-12-28T17:05:13;10.10;99.90
24207;DHT22;12351;52.284;9.160;2023-12-28T17:08:00;10.10;99.90
24207;DHT22;12351;52.284;9.160;2023-12-28T17:10:47;10.10;99.90
24207;DHT22;12351;52.284;9.160;2023-12-28T17:13:36;10.10;99.90
24207;DHT22;12351;52.284;9.160;2023-12-28T17:16:23;10.10;99.90
24207;DHT22;12351;52.284;9.160;2023-12-28T17:19:10;10.10;99.90
24207;DHT22;12351;52.284;9.160;2023-12-28T17:22:03;10.10;99.90
24207;DHT22;12351;52.284;9.160;2023-12-28T17:24:53;10.10;99.90
24207;DHT22;12351;52.284;9.160;2023-12-28T17:27:46;10.10;99.90
24207;DHT22;12351;52.284;9.160;2023-12-28T17:30:31;10.10;99.90
24207;DHT22;12351;52.284;9.160;2023-12-28T17:33:20;10.10;99.90
24207;DHT22;12351;52.284;9.160;2023-12-28T17:36:08;10.10;99.90
24207;DHT22;12351;52.284;9.160;2023-12-28T17:38:57;10.10;99.90
24207;DHT22;12351;52.284;9.160;2023-12-28T17:41:46;10.10;99.90
24207;DHT22;12351;52.284;9.160;2023-12-28T17:44:36;10.10;99.90
24207;DHT22;12351;52.284;9.160;2023-12-28T17:47:26;10.10;99.90
24207;DHT22;12351;52.284;9.160;2023-12-28T17:50:14;10.10;99.90
24207;DHT22;12351;52.284;9.160;2023-12-28T17:53:02;10.10;99.90
24207;DHT22;12351;52.284;9.160;2023-12-28T17:55:50;10.10;99.90
24207;DHT22;12351;52.284;9.160;2023-12-28T17:58:37;10.10;99.90
24207;DHT22;12351;52.284;9.160;2023-12-28T18:01:24;10.10;99.90
24207;DHT22;12351;52.284;9.160;2023-12-28T18:04:11;10.10;99.90
24207;DHT22;12351;52.284;9.160;2023-12-28T18:06:58;10.10;99.90
24207;DHT22;12351;52.284;9.160;2023-12-28T18:09:45;10.00;99.90
24207;DHT22;12351;52.284;9.160;2023-12-28T18:12:32;10.00;99.90
24207;DHT22;12351;52.284;9.160;2023-12-28T18:15:19;10.10;99.90
24207;DHT22;12351;52.284;9.160;2023-12-28T18:18:06;10.10;99.90
24207;DHT22;12351;52.284;9.160;2023-12-28T18:20:53;10.10;99.90
24207;DHT22;12351;52.284;9.160;2023-12-28T18:23:41;10.00;99.90
24207;DHT22;12351;52.284;9.160;2023-12-28T18:26:28;10.10;99.90
24207;DHT22;12351;52.284;9.160;2023-12-28T18:29:15;10.00;99.90
24207;DHT22;12351;52.284;9.160;2023-12-28T18:32:02;10.00;99.90
24207;DHT22;12351;52.284;9.160;2023-12-28T18:34:49;10.10;99.90